Time;durP1;ratioP1;P1;durP2;ratioP2;P2;SDS_P1;SDS_P2;PMS_P1;PMS_P2;Temp;Humidity;BMP_temperature;BMP_pressure;BME280_temperature;BME280_humidity;BME280_pressure;Samples;Min_cycle;Max_cycle;Signal;HPM_P1;HPM_P2
2023/06/03 00:01:21;;;;;;;0.43;0.43;;;12.10;99.90;;;;;;5041137;28;20437;-73
2023/06/03 00:03:51;;;;;;;0.38;0.38;;;12.20;99.90;;;;;;5037027;28;20425;-73
2023/06/03 00:06:18;;;;;;;1.95;0.80;;;12.20;99.90;;;;;;5038032;28;20433;-73
2023/06/03 00:08:48;;;;;;;2.80;0.30;;;12.30;99.90;;;;;;4976561;28;1763613;-74
2023/06/03 00:11:17;;;;;;;1.40;0.83;;;12.30;99.90;;;;;;5044568;28;20838;-73
2023/06/03 00:13:44;;;;;;;2.83;0.55;;;12.30;99.90;;;;;;5041336;28;20448;-73
2023/06/03 00:16:11;;;;;;;2.30;0.50;;;12.30;99.90;;;;;;5042124;28;21008;-74
2023/06/03 00:18:41;;;;;;;1.15;0.43;;;12.20;99.90;;;;;;5042695;28;20439;-74
2023/06/03 00:21:11;;;;;;;1.38;0.68;;;12.10;99.90;;;;;;5041874;28;20422;-73
2023/06/03 00:23:38;;;;;;;0.47;0.47;;;12.00;99.90;;;;;;5072809;28;20499;-74
2023/06/03 00:26:05;;;;;;;5.80;0.57;;;12.00;99.90;;;;;;5042085;28;20436;-73
2023/06/03 00:28:32;;;;;;;0.73;0.73;;;11.90;99.90;;;;;;5032694;28;20440;-73
2023/06/03 00:31:08;;;;;;;0.70;0.40;;;12.00;99.90;;;;;;5040641;28;20437;-73
2023/06/03 00:33:35;;;;;;;0.88;0.88;;;12.00;99.90;;;;;;5042208;28;20924;-73
2023/06/03 00:36:02;;;;;;;0.63;0.60;;;12.00;99.90;;;;;;5041326;28;20491;-74
2023/06/03 00:38:28;;;;;;;0.50;0.50;;;11.90;99.90;;;;;;5039406;28;20516;-73
2023/06/03 00:40:55;;;;;;;1.00;0.50;;;12.00;99.90;;;;;;5040706;28;21299;-74
2023/06/03 00:43:22;;;;;;;0.40;0.40;;;12.00;99.90;;;;;;5041803;28;20437;-74
2023/06/03 00:45:49;;;;;;;2.00;0.60;;;12.00;99.90;;;;;;5040718;28;20469;-73
2023/06/03 00:48:16;;;;;;;0.40;0.40;;;12.00;99.90;;;;;;5039565;28;20433;-73
2023/06/03 00:50:48;;;;;;;0.80;0.80;;;12.00;99.90;;;;;;5070634;28;20576;-73
2023/06/03 00:53:18;;;;;;;0.50;0.50;;;11.90;99.90;;;;;;5032895;28;20456;-73
2023/06/03 00:55:45;;;;;;;0.60;0.60;;;11.90;1.00;;;;;;5039582;28;20919;-74
2023/06/03 00:58:11;;;;;;;0.90;0.40;;;11.90;1.00;;;;;;5040790;28;20436;-73
2023/06/03 01:00:38;;;;;;;2.20;1.00;;;11.90;1.00;;;;;;5036399;28;20871;-73
2023/06/03 01:03:13;;;;;;;2.20;0.60;;;11.90;1.00;;;;;;5038791;28;20443;-73
2023/06/03 01:05:41;;;;;;;0.80;0.80;;;11.90;1.00;;;;;;5038023;28;20745;-74
2023/06/03 01:08:20;;;;;;;0.95;0.70;;;11.80;1.00;;;;;;5039586;28;20433;-73
2023/06/03 01:11:04;;;;;;;1.02;0.38;;;11.80;1.00;;;;;;5041224;28;20488;-73
2023/06/03 01:13:49;;;;;;;0.45;0.35;;;11.80;1.00;;;;;;5035788;28;20719;-74
2023/06/03 01:16:20;;;;;;;0.57;0.57;;;11.70;1.00;;;;;;5037362;28;20772;-73
2023/06/03 01:18:48;;;;;;;2.55;0.60;;;11.70;1.00;;;;;;5048735;28;20430;-74
2023/06/03 01:21:16;;;;;;;0.70;0.60;;;11.70;1.00;;;;;;5035087;28;20440;-73
2023/06/03 01:23:44;;;;;;;0.50;0.50;;;11.70;1.00;;;;;;5039913;28;20437;-73
2023/06/03 01:26:11;;;;;;;0.55;0.47;;;11.70;1.00;;;;;;5039180;28;20433;-74
2023/06/03 01:28:39;;;;;;;1.05;0.55;;;11.70;1.00;;;;;;5070099;28;20441;-73
2023/06/03 01:31:06;;;;;;;0.65;0.65;;;11.60;1.00;;;;;;5038482;28;20437;-73
2023/06/03 01:33:37;;;;;;;0.43;0.43;;;11.70;1.00;;;;;;5039178;28;20724;-73
2023/06/03 01:36:05;;;;;;;5.10;0.73;;;11.60;1.00;;;;;;5040124;28;20486;-73
2023/06/03 01:38:33;;;;;;;5.90;0.40;;;11.60;1.00;;;;;;5041222;28;20484;-73
2023/06/03 01:41:01;;;;;;;1.70;0.50;;;11.50;1.00;;;;;;5039339;28;20444;-73
2023/06/03 01:43:30;;;;;;;0.63;0.60;;;11.60;1.00;;;;;;5040530;28;20441;-73
2023/06/03 01:45:56;;;;;;;1.40;0.70;;;11.50;1.00;;;;;;5071663;28;20444;-73
2023/06/03 01:48:23;;;;;;;0.50;0.50;;;11.50;1.00;;;;;;5037565;28;20846;-73
2023/06/03 01:50:50;;;;;;;0.93;0.93;;;11.50;1.00;;;;;;5036744;28;20528;-73
2023/06/03 01:53:17;;;;;;;0.50;0.50;;;11.50;1.00;;;;;;5040468;28;20479;-74
2023/06/03 01:55:44;;;;;;;3.47;1.33;;;11.50;1.00;;;;;;5039968;28;20470;-74
2023/06/03 01:58:11;;;;;;;0.73;0.73;;;11.50;1.00;;;;;;5039037;28;20433;-73
2023/06/03 02:00:37;;;;;;;0.60;0.60;;;11.40;1.00;;;;;;5040865;28;20764;-73
2023/06/03 02:03:04;;;;;;;0.57;0.57;;;11.40;1.00;;;;;;5037413;28;20478;-73
2023/06/03 02:05:31;;;;;;;1.17;0.90;;;11.40;1.00;;;;;;5040372;28;20524;-74
2023/06/03 02:08:03;;;;;;;0.70;0.70;;;11.40;47.70;;;;;;5039024;28;20436;-73
2023/06/03 02:10:30;;;;;;;0.65;0.65;;;11.40;35.70;;;;;;5038185;28;20428;-73
2023/06/03 02:12:56;;;;;;;1.50;0.80;;;11.40;10.30;;;;;;5036375;28;20486;-73
2023/06/03 02:15:23;;;;;;;0.68;0.68;;;11.40;47.90;;;;;;5037959;28;20467;-74
2023/06/03 02:17:51;;;;;;;0.68;0.68;;;11.30;97.70;;;;;;5040592;28;20709;-74
2023/06/03 02:20:18;;;;;;;0.57;0.57;;;11.20;99.90;;;;;;5040662;28;20436;-74
2023/06/03 02:22:44;;;;;;;0.85;0.65;;;11.20;99.90;;;;;;5070608;28;20425;-73
2023/06/03 02:25:11;;;;;;;0.40;0.40;;;11.10;99.90;;;;;;5040562;28;20518;-73
2023/06/03 02:27:38;;;;;;;0.45;0.45;;;11.10;99.90;;;;;;5036087;28;20555;-73
2023/06/03 02:30:07;;;;;;;3.92;1.25;;;11.00;99.90;;;;;;5070146;28;20440;-73
2023/06/03 02:32:34;;;;;;;1.10;1.00;;;11.00;99.90;;;;;;5037240;28;20605;-74
2023/06/03 02:35:03;;;;;;;0.40;0.40;;;11.10;99.90;;;;;;5038379;28;20455;-74
2023/06/03 02:37:30;;;;;;;1.30;0.70;;;11.00;99.90;;;;;;5035318;28;20471;-74
2023/06/03 02:39:57;;;;;;;1.85;1.15;;;10.90;99.90;;;;;;5037476;28;20491;-73
2023/06/03 02:42:24;;;;;;;0.70;0.50;;;11.00;1.00;;;;;;5038171;28;20433;-73
2023/06/03 02:44:51;;;;;;;0.60;0.60;;;10.90;99.90;;;;;;5040013;28;20562;-73
2023/06/03 02:47:17;;;;;;;1.23;1.13;;;10.90;1.00;;;;;;5039249;28;20904;-74
2023/06/03 02:49:45;;;;;;;2.10;0.98;;;10.90;1.00;;;;;;5053626;28;20432;-74
2023/06/03 02:52:12;;;;;;;8.10;0.90;;;10.90;1.00;;;;;;5037163;28;20433;-73
2023/06/03 02:54:41;;;;;;;3.10;1.00;;;10.90;1.00;;;;;;5032990;28;20522;-73
2023/06/03 02:57:11;;;;;;;0.52;0.52;;;11.00;1.00;;;;;;5043422;28;20577;-74
2023/06/03 02:59:38;;;;;;;3.42;1.05;;;10.90;1.00;;;;;;5040252;28;20437;-74
2023/06/03 03:02:05;;;;;;;1.30;0.93;;;10.90;1.00;;;;;;5042735;28;20967;-73
2023/06/03 03:04:36;;;;;;;1.10;1.10;;;10.90;1.00;;;;;;5043241;28;20815;-74
2023/06/03 03:07:07;;;;;;;1.60;1.10;;;10.80;99.90;;;;;;5043279;28;20508;-74
2023/06/03 03:09:34;;;;;;;1.20;0.50;;;10.80;37.00;;;;;;5040670;28;20472;-73
2023/06/03 03:12:02;;;;;;;0.90;0.90;;;10.80;99.90;;;;;;5043596;28;20600;-73
2023/06/03 03:14:28;;;;;;;1.10;0.30;;;10.80;99.90;;;;;;5040916;28;20494;-74
2023/06/03 03:16:55;;;;;;;0.40;0.40;;;10.80;99.90;;;;;;5043138;28;20461;-73
2023/06/03 03:19:22;;;;;;;0.73;0.73;;;10.80;99.90;;;;;;5044013;28;20504;-73
2023/06/03 03:21:49;;;;;;;0.65;0.65;;;10.80;99.90;;;;;;5041458;28;20520;-74
2023/06/03 03:24:16;;;;;;;2.20;0.85;;;10.70;99.90;;;;;;5042495;28;20440;-74
2023/06/03 03:26:43;;;;;;;0.80;0.75;;;10.70;99.90;;;;;;5043642;28;20429;-73
2023/06/03 03:29:09;;;;;;;0.50;0.50;;;10.70;99.90;;;;;;5043190;28;21053;-73
2023/06/03 03:31:36;;;;;;;0.43;0.43;;;10.70;99.90;;;;;;5041368;28;20460;-74
2023/06/03 03:34:04;;;;;;;1.45;1.35;;;10.70;99.90;;;;;;5042949;28;20431;-73
2023/06/03 03:36:31;;;;;;;0.68;0.60;;;10.70;99.90;;;;;;5043174;28;20429;-73
2023/06/03 03:39:04;;;;;;;0.57;0.57;;;10.70;99.90;;;;;;5072545;28;20432;-73
2023/06/03 03:41:31;;;;;;;0.80;0.80;;;10.70;99.90;;;;;;5043114;28;20429;-73
2023/06/03 03:43:58;;;;;;;2.47;0.90;;;10.70;99.90;;;;;;5073550;28;20445;-74
2023/06/03 03:46:25;;;;;;;0.40;0.40;;;10.70;99.90;;;;;;5037806;28;20425;-73
2023/06/03 03:48:52;;;;;;;0.50;0.50;;;10.70;99.90;;;;;;5041168;28;20812;-74
2023/06/03 03:51:21;;;;;;;0.40;0.40;;;10.70;99.90;;;;;;5040645;28;20449;-73
2023/06/03 03:53:49;;;;;;;0.90;0.40;;;10.70;99.90;;;;;;5040237;28;21056;-74
2023/06/03 03:56:18;;;;;;;2.15;1.30;;;10.70;99.90;;;;;;5042672;28;20429;-73
2023/06/03 03:58:46;;;;;;;0.40;0.40;;;10.70;86.20;;;;;;5040334;28;20819;-74
2023/06/03 04:01:22;;;;;;;1.08;0.77;;;10.80;1.00;;;;;;5036031;28;20469;-74
2023/06/03 04:03:56;;;;;;;0.27;0.27;;;10.90;1.00;;;;;;5039728;28;20430;-74
2023/06/03 04:06:36;;;;;;;0.32;0.32;;;10.90;99.90;;;;;;5041116;28;20465;-73
2023/06/03 04:09:04;;;;;;;0.20;0.20;;;11.00;99.90;;;;;;5036685;28;20571;-73
2023/06/03 04:11:46;;;;;;;0.80;0.80;;;11.10;99.90;;;;;;5042319;28;20883;-74
2023/06/03 04:14:16;;;;;;;0.50;0.40;;;11.10;71.50;;;;;;5038620;28;20431;-74
2023/06/03 04:16:51;;;;;;;0.55;0.55;;;11.20;21.50;;;;;;5039623;28;20445;-74
2023/06/03 04:19:36;;;;;;;0.50;0.50;;;11.20;1.00;;;;;;5041950;28;20434;-74
2023/06/03 04:22:08;;;;;;;0.50;0.50;;;11.30;1.00;;;;;;5042222;28;20448;-73
2023/06/03 04:24:36;;;;;;;3.83;0.50;;;11.40;1.00;;;;;;5040700;28;20918;-74
2023/06/03 04:27:10;;;;;;;1.00;0.80;;;11.50;1.00;;;;;;5038351;28;20866;-73
2023/06/03 04:29:38;;;;;;;0.50;0.50;;;11.50;1.00;;;;;;5041070;28;20790;-73
2023/06/03 04:32:06;;;;;;;6.00;0.60;;;11.60;99.90;;;;;;5042306;28;20784;-74
2023/06/03 04:34:33;;;;;;;0.60;0.60;;;11.70;99.90;;;;;;5040286;28;20436;-73
2023/06/03 04:37:00;;;;;;;0.57;0.50;;;11.70;99.90;;;;;;5042630;28;20568;-74
2023/06/03 04:39:27;;;;;;;0.60;0.40;;;11.90;99.90;;;;;;5070786;28;20439;-74
2023/06/03 04:41:55;;;;;;;0.33;0.33;;;12.30;99.90;;;;;;5039807;28;20503;-72
2023/06/03 04:44:21;;;;;;;0.40;0.40;;;12.80;99.90;;;;;;5037663;28;20429;-72
2023/06/03 04:46:51;;;;;;;0.50;0.50;;;13.30;99.90;;;;;;5041253;28;20491;-72
2023/06/03 04:49:18;;;;;;;1.77;0.50;;;13.60;99.90;;;;;;5042339;28;20547;-72
2023/06/03 04:51:48;;;;;;;1.10;0.63;;;14.00;99.90;;;;;;5041328;28;20455;-72
2023/06/03 04:54:16;;;;;;;0.40;0.40;;;14.20;99.90;;;;;;5041494;28;20429;-72
2023/06/03 04:56:47;;;;;;;0.30;0.30;;;14.30;99.90;;;;;;5032288;28;20987;-72
2023/06/03 04:59:14;;;;;;;0.38;0.38;;;14.30;99.90;;;;;;5038109;28;20499;-72
2023/06/03 05:01:44;;;;;;;1.20;0.70;;;14.40;99.90;;;;;;5041533;28;20429;-72
2023/06/03 05:04:11;;;;;;;0.50;0.40;;;14.40;99.90;;;;;;5030700;28;20935;-72
2023/06/03 05:06:39;;;;;;;1.60;0.88;;;14.20;99.90;;;;;;5040009;28;20441;-71
2023/06/03 05:09:09;;;;;;;1.50;0.60;;;14.00;99.90;;;;;;5039281;28;20502;-71
2023/06/03 05:11:36;;;;;;;0.70;0.55;;;13.70;99.90;;;;;;5042962;28;20889;-72
2023/06/03 05:14:03;;;;;;;0.70;0.57;;;13.50;99.90;;;;;;5042397;28;20517;-71
2023/06/03 05:16:29;;;;;;;0.67;0.67;;;13.50;99.90;;;;;;5039294;28;20989;-71
2023/06/03 05:18:56;;;;;;;2.17;0.38;;;13.50;99.90;;;;;;5041351;28;20444;-72
2023/06/03 05:21:23;;;;;;;0.40;0.40;;;13.40;99.90;;;;;;5038162;28;20440;-72
2023/06/03 05:23:52;;;;;;;0.50;0.50;;;13.50;99.90;;;;;;5038429;28;20429;-72
2023/06/03 05:26:21;;;;;;;2.15;0.47;;;13.60;99.90;;;;;;5039935;28;20479;-72
2023/06/03 05:28:49;;;;;;;1.70;1.20;;;13.70;99.90;;;;;;5039122;28;20432;-72
2023/06/03 05:31:15;;;;;;;0.80;0.52;;;14.00;99.90;;;;;;5039010;28;20440;-72
2023/06/03 05:33:44;;;;;;;1.20;0.60;;;14.20;99.90;;;;;;5037046;28;20433;-72
2023/06/03 05:36:14;;;;;;;0.60;0.60;;;14.90;99.90;;;;;;5039308;28;20971;-73
2023/06/03 05:38:41;;;;;;;0.63;0.40;;;15.70;99.90;;;;;;5038198;28;20430;-73
2023/06/03 05:41:07;;;;;;;1.20;0.75;;;16.30;99.90;;;;;;5037801;28;20856;-72
2023/06/03 05:43:34;;;;;;;0.50;0.50;;;17.20;99.90;;;;;;5041163;28;20514;-73
2023/06/03 05:46:03;;;;;;;0.60;0.60;;;17.60;99.90;;;;;;5039187;28;20429;-72
2023/06/03 05:48:30;;;;;;;0.35;0.35;;;17.70;99.90;;;;;;5038954;28;20425;-72
2023/06/03 05:50:57;;;;;;;0.60;0.60;;;17.50;98.60;;;;;;5038629;28;20436;-72
2023/06/03 05:53:25;;;;;;;0.60;0.60;;;17.20;96.20;;;;;;5039046;28;20444;-72
2023/06/03 05:55:52;;;;;;;1.52;0.50;;;17.00;95.60;;;;;;5037459;28;20522;-72
2023/06/03 05:58:23;;;;;;;1.70;0.52;;;16.60;93.70;;;;;;5039931;28;20437;-72
2023/06/03 06:00:50;;;;;;;0.50;0.50;;;16.60;93.60;;;;;;5037616;28;20429;-72
2023/06/03 06:03:19;;;;;;;0.40;0.40;;;16.80;93.50;;;;;;5038338;28;20537;-72
2023/06/03 06:05:46;;;;;;;0.50;0.50;;;16.50;92.20;;;;;;5037848;28;20924;-72
2023/06/03 06:08:13;;;;;;;2.67;0.52;;;16.20;91.00;;;;;;5040395;28;20783;-72
2023/06/03 06:10:40;;;;;;;0.50;0.40;;;16.20;90.90;;;;;;5069621;28;21083;-72
2023/06/03 06:13:07;;;;;;;0.50;0.50;;;16.10;90.20;;;;;;5041299;28;20860;-72
2023/06/03 06:15:34;;;;;;;2.50;0.60;;;15.90;89.30;;;;;;5040598;28;20456;-72
2023/06/03 06:18:01;;;;;;;0.40;0.25;;;16.80;92.30;;;;;;5039588;28;20520;-72
2023/06/03 06:20:27;;;;;;;0.50;0.50;;;17.30;93.00;;;;;;5037287;28;20463;-72
2023/06/03 06:22:54;;;;;;;0.50;0.50;;;17.70;93.60;;;;;;5038106;28;20449;-73
2023/06/03 06:25:22;;;;;;;16.05;0.50;;;17.80;92.90;;;;;;5038236;28;20463;-72
2023/06/03 06:27:49;;;;;;;0.97;0.47;;;18.10;92.80;;;;;;5036577;28;20803;-72
2023/06/03 06:30:19;;;;;;;1.40;0.55;;;18.50;93.80;;;;;;5073727;28;20708;-72
2023/06/03 06:32:50;;;;;;;0.70;0.70;;;19.00;94.50;;;;;;5043475;28;20511;-72
2023/06/03 06:35:18;;;;;;;0.47;0.40;;;19.00;93.80;;;;;;5043441;28;20432;-72
2023/06/03 06:37:46;;;;;;;0.50;0.50;;;19.00;93.20;;;;;;5044018;28;20452;-72
2023/06/03 06:40:20;;;;;;;0.32;0.32;;;18.90;92.40;;;;;;5036721;28;20433;-72
2023/06/03 06:42:47;;;;;;;0.80;0.80;;;19.50;93.60;;;;;;5041673;28;20435;-73
2023/06/03 06:45:27;;;;;;;0.47;0.47;;;19.80;94.70;;;;;;5042322;28;20942;-72
2023/06/03 06:48:08;;;;;;;3.50;0.43;;;20.20;94.80;;;;;;5075765;28;20562;-72
2023/06/03 06:50:44;;;;;;;0.30;0.30;;;19.40;91.70;;;;;;5043358;28;20441;-73
2023/06/03 06:53:15;;;;;;;0.40;0.40;;;19.90;93.00;;;;;;5038419;28;20453;-72
2023/06/03 06:56:02;;;;;;;0.70;0.30;;;19.50;91.40;;;;;;5042797;28;20436;-72
2023/06/03 06:58:37;;;;;;;0.25;0.25;;;19.10;89.30;;;;;;5034792;28;20447;-72
2023/06/03 07:01:07;;;;;;;1.10;1.00;;;19.50;91.00;;;;;;5031263;28;20448;-72
2023/06/03 07:03:36;;;;;;;0.60;0.60;;;19.80;91.40;;;;;;5043650;28;20437;-72
2023/06/03 07:06:03;;;;;;;0.40;0.40;;;19.70;90.50;;;;;;5040344;28;20961;-72
2023/06/03 07:08:30;;;;;;;0.43;0.43;;;19.30;88.30;;;;;;5041091;28;20459;-72
2023/06/03 07:11:00;;;;;;;0.23;0.23;;;19.40;90.20;;;;;;5041745;28;20797;-72
2023/06/03 07:13:27;;;;;;;0.52;0.52;;;20.10;92.10;;;;;;5043029;28;20425;-73
2023/06/03 07:15:55;;;;;;;1.30;0.50;;;21.10;94.20;;;;;;5043916;28;20520;-72
2023/06/03 07:18:22;;;;;;;0.40;0.40;;;20.80;92.90;;;;;;5041024;28;20883;-73
2023/06/03 07:20:50;;;;;;;0.47;0.47;;;20.40;91.40;;;;;;5043333;28;20433;-73
2023/06/03 07:23:25;;;;;;;0.37;0.37;;;20.00;90.20;;;;;;5041587;28;20777;-73
2023/06/03 07:25:53;;;;;;;0.28;0.28;;;19.50;86.20;;;;;;5040411;28;21493;-72
2023/06/03 07:28:34;;;;;;;1.10;0.40;;;19.00;83.10;;;;;;5041244;28;20523;-73
2023/06/03 07:31:06;;;;;;;0.40;0.40;;;18.30;78.80;;;;;;5040728;28;20487;-72
2023/06/03 07:33:38;;;;;;;0.63;0.63;;;18.10;91.20;;;;;;5040589;28;20432;-73
2023/06/03 07:36:05;;;;;;;0.40;0.40;;;18.40;79.50;;;;;;5042070;28;20856;-73
2023/06/03 07:38:38;;;;;;;0.30;0.30;;;18.80;82.80;;;;;;5073225;28;20439;-73
2023/06/03 07:41:09;;;;;;;0.40;0.30;;;19.80;89.90;;;;;;5041303;28;20437;-73
2023/06/03 07:43:38;;;;;;;0.60;0.60;;;20.80;92.70;;;;;;5073857;28;20706;-73
2023/06/03 07:46:06;;;;;;;0.30;0.30;;;21.20;93.40;;;;;;5039632;28;20880;-73
2023/06/03 07:48:39;;;;;;;0.50;0.47;;;21.50;93.60;;;;;;5041903;28;20514;-73
2023/06/03 07:51:07;;;;;;;0.40;0.40;;;21.20;92.50;;;;;;5040618;28;20441;-72
2023/06/03 07:53:36;;;;;;;0.37;0.37;;;21.30;91.70;;;;;;5073865;28;20428;-73
2023/06/03 07:56:12;;;;;;;0.50;0.50;;;21.80;92.30;;;;;;5042435;28;20487;-73
2023/06/03 07:58:41;;;;;;;0.50;0.50;;;22.40;94.10;;;;;;5040060;28;20560;-73
2023/06/03 08:01:17;;;;;;;0.50;0.50;;;22.90;95.50;;;;;;5036625;28;20445;-73
2023/06/03 08:03:43;;;;;;;0.50;0.50;;;23.80;97.10;;;;;;5038241;28;20901;-71
2023/06/03 08:06:10;;;;;;;0.80;0.63;;;24.50;98.60;;;;;;5042303;28;20447;-73
2023/06/03 08:08:37;;;;;;;0.85;0.65;;;24.80;99.20;;;;;;5038798;28;20429;-72
2023/06/03 08:11:08;;;;;;;1.80;0.50;;;25.00;99.10;;;;;;5044389;28;20425;-72
2023/06/03 08:13:34;;;;;;;0.40;0.40;;;25.60;99.90;;;;;;5042313;28;20439;-72
2023/06/03 08:16:01;;;;;;;0.43;0.43;;;25.80;99.90;;;;;;5039549;28;20431;-73
2023/06/03 08:18:41;;;;;;;0.50;0.50;;;25.50;99.90;;;;;;5041671;28;20779;-73
2023/06/03 08:21:07;;;;;;;1.10;0.47;;;24.40;96.20;;;;;;5042208;28;20444;-73
2023/06/03 08:23:34;;;;;;;3.05;0.52;;;23.30;93.30;;;;;;5041576;28;20802;-73
2023/06/03 08:26:01;;;;;;;0.60;0.50;;;22.60;91.00;;;;;;5040984;28;20437;-73
2023/06/03 08:28:28;;;;;;;0.50;0.50;;;22.10;90.00;;;;;;5043666;28;20433;-72
2023/06/03 08:30:55;;;;;;;0.60;0.60;;;22.20;90.20;;;;;;5037626;28;20433;-73
2023/06/03 08:33:22;;;;;;;0.47;0.38;;;22.60;90.90;;;;;;5071635;28;20418;-72
2023/06/03 08:35:49;;;;;;;144.30;129.77;;;23.30;93.30;;;;;;5041484;28;21111;-73
2023/06/03 08:38:19;;;;;;;0.60;0.60;;;23.50;94.10;;;;;;5042020;28;20437;-72
2023/06/03 08:40:50;;;;;;;1.70;1.60;;;24.10;95.40;;;;;;5070789;28;20441;-73
2023/06/03 08:43:17;;;;;;;2.15;0.90;;;24.70;96.60;;;;;;5038800;28;20436;-73
2023/06/03 08:46:05;;;;;;;1.10;1.10;;;25.10;97.80;;;;;;5036007;28;20712;-73
2023/06/03 08:48:50;;;;;;;0.68;0.68;;;24.20;95.70;;;;;;5038370;28;20828;-72
2023/06/03 08:51:21;;;;;;;0.75;0.50;;;23.70;93.50;;;;;;5041413;28;20507;-72
2023/06/03 08:53:55;;;;;;;0.38;0.38;;;23.60;93.30;;;;;;5040516;28;20434;-72
2023/06/03 08:56:22;;;;;;;0.80;0.50;;;23.90;94.40;;;;;;5037402;28;20495;-73
2023/06/03 08:58:56;;;;;;;0.50;0.50;;;23.80;94.30;;;;;;5070112;28;20435;-73
2023/06/03 09:01:45;;;;;;;1.00;1.00;;;24.30;95.60;;;;;;5038147;28;20498;-73
2023/06/03 09:04:13;;;;;;;0.45;0.30;;;25.30;98.70;;;;;;5031889;28;20869;-73
2023/06/03 09:06:47;;;;;;;19.92;18.23;;;25.20;97.60;;;;;;5039883;28;20433;-73
2023/06/03 09:09:15;;;;;;;0.70;0.70;;;24.90;96.70;;;;;;5038082;28;20837;-73
2023/06/03 09:11:45;;;;;;;0.70;0.70;;;25.30;97.80;;;;;;5043305;28;20471;-73
2023/06/03 09:14:12;;;;;;;0.40;0.40;;;25.80;99.40;;;;;;5041214;28;20425;-73
2023/06/03 09:16:40;;;;;;;0.68;0.68;;;25.80;99.40;;;;;;5041126;28;20432;-73
2023/06/03 09:19:06;;;;;;;0.47;0.47;;;25.70;98.40;;;;;;5040148;28;20425;-73
2023/06/03 09:21:35;;;;;;;1.90;0.40;;;25.70;98.60;;;;;;5039302;28;20433;-73
2023/06/03 09:24:02;;;;;;;1.30;1.10;;;25.40;97.10;;;;;;5038759;28;21068;-74
2023/06/03 09:26:29;;;;;;;0.50;0.50;;;25.80;98.30;;;;;;5038259;28;20436;-73
2023/06/03 09:28:56;;;;;;;1.70;0.57;;;25.80;98.00;;;;;;5040531;28;21815;-73
2023/06/03 09:31:24;;;;;;;0.40;0.40;;;25.60;97.90;;;;;;5041176;28;22058;-73
2023/06/03 09:33:52;;;;;;;0.82;0.73;;;26.00;99.10;;;;;;5069518;28;20430;-73
2023/06/03 09:36:19;;;;;;;0.70;0.70;;;26.10;99.00;;;;;;5038622;28;20431;-73
2023/06/03 09:38:56;;;;;;;0.85;0.85;;;26.00;99.00;;;;;;5069666;28;20433;-73
2023/06/03 09:41:27;;;;;;;0.60;0.60;;;25.40;97.20;;;;;;5035388;28;20827;-74
2023/06/03 09:43:58;;;;;;;0.90;0.90;;;24.90;95.40;;;;;;5040451;28;20516;-73
2023/06/03 09:46:26;;;;;;;0.63;0.63;;;25.10;96.40;;;;;;5040822;28;20437;-73
2023/06/03 09:48:53;;;;;;;0.77;0.77;;;25.10;95.70;;;;;;5042411;28;20429;-73
2023/06/03 09:51:20;;;;;;;0.68;0.68;;;25.40;96.90;;;;;;5039405;28;20967;-74
2023/06/03 09:53:47;;;;;;;2.10;0.68;;;25.00;96.50;;;;;;5039328;28;20898;-73
2023/06/03 09:56:26;;;;;;;0.77;0.77;;;25.10;96.00;;;;;;5038375;28;20916;-73
2023/06/03 09:59:19;;;;;;;0.75;0.75;;;26.00;99.00;;;;;;5034511;28;20556;-73
2023/06/03 10:01:47;;;;;;;1.00;0.60;;;26.10;99.50;;;;;;5035990;28;20490;-73
2023/06/03 10:04:44;;;;;;;2.40;0.50;;;25.20;96.30;;;;;;5041230;28;20433;-73
2023/06/03 10:07:16;;;;;;;1.00;0.75;;;24.10;92.30;;;;;;5042280;28;20927;-73
2023/06/03 10:09:45;;;;;;;0.60;0.60;;;24.20;93.20;;;;;;5043957;28;20432;-73
2023/06/03 10:12:27;;;;;;;1.70;1.10;;;24.70;95.30;;;;;;5046619;28;20435;-73
2023/06/03 10:14:56;;;;;;;0.98;0.98;;;25.30;96.50;;;;;;5039713;28;20458;-73
2023/06/03 10:17:26;;;;;;;0.68;0.68;;;26.30;99.30;;;;;;5042058;28;20923;-73
2023/06/03 10:19:53;;;;;;;0.38;0.38;;;26.50;99.80;;;;;;5043887;28;20538;-74
2023/06/03 10:22:21;;;;;;;2.50;1.20;;;26.20;98.80;;;;;;5043774;28;20525;-73
2023/06/03 10:24:49;;;;;;;0.50;0.50;;;26.00;98.30;;;;;;5041787;28;20855;-73
2023/06/03 10:27:18;;;;;;;0.60;0.60;;;26.20;98.40;;;;;;5035764;28;20433;-72
2023/06/03 10:29:47;;;;;;;0.65;0.65;;;25.00;95.40;;;;;;5036157;28;21166;-73
2023/06/03 10:32:14;;;;;;;1.33;1.02;;;24.80;94.80;;;;;;5036575;28;20522;-73
2023/06/03 10:34:43;;;;;;;0.65;0.65;;;25.00;95.30;;;;;;5039275;28;20815;-72
2023/06/03 10:37:14;;;;;;;0.20;0.20;;;25.50;97.00;;;;;;5044293;28;20886;-73
2023/06/03 10:39:44;;;;;;;0.60;0.60;;;26.20;98.20;;;;;;5040689;28;20440;-73
2023/06/03 10:42:13;;;;;;;0.70;0.70;;;26.90;99.90;;;;;;5040842;28;20980;-72
2023/06/03 10:44:40;;;;;;;0.70;0.70;;;27.00;99.90;;;;;;5044045;28;20487;-73
2023/06/03 10:47:27;;;;;;;1.30;0.32;;;26.50;98.90;;;;;;5043992;28;20513;-72
2023/06/03 10:50:00;;;;;;;0.28;0.28;;;26.40;98.50;;;;;;5043706;28;20433;-72
2023/06/03 10:53:06;;;;;;;0.30;0.30;;;26.20;97.60;;;;;;5046452;28;21008;-73
2023/06/03 10:55:55;;;;;;;1.20;0.67;;;25.80;97.20;;;;;;5040665;28;20459;-73
2023/06/03 10:58:28;;;;;;;0.40;0.40;;;26.70;99.20;;;;;;5038758;28;20553;-73
2023/06/03 11:00:59;;;;;;;6.60;4.80;;;26.50;98.90;;;;;;5041288;28;20494;-72
2023/06/03 11:03:27;;;;;;;0.70;0.70;;;26.80;99.90;;;;;;5039994;28;20466;-73
2023/06/03 11:06:25;;;;;;;2.60;1.30;;;27.30;99.90;;;;;;5036935;28;20516;-72
2023/06/03 11:09:08;;;;;;;3.55;1.15;;;27.30;99.90;;;;;;5036945;28;20487;-72
2023/06/03 11:11:40;;;;;;;0.75;0.75;;;27.50;99.90;;;;;;5042029;28;20441;-72
2023/06/03 11:14:09;;;;;;;0.65;0.65;;;27.20;99.90;;;;;;5038403;28;20880;-72
2023/06/03 11:16:57;;;;;;;0.90;0.90;;;26.60;99.70;;;;;;5041953;28;20425;-73
2023/06/03 11:19:35;;;;;;;0.63;0.63;;;25.90;96.80;;;;;;5040438;28;20433;-72
2023/06/03 11:22:07;;;;;;;0.35;0.35;;;26.00;96.50;;;;;;5042932;28;20483;-72
2023/06/03 11:24:37;;;;;;;1030.25;926.67;;;26.60;98.60;;;;;;5043624;28;20468;-72
2023/06/03 11:27:13;;;;;;;111.90;101.55;;;27.10;99.60;;;;;;5040965;28;20552;-73
2023/06/03 11:29:46;;;;;;;56.30;51.65;;;27.00;99.00;;;;;;5041053;28;20462;-73
2023/06/03 11:32:23;;;;;;;0.50;0.50;;;27.10;99.60;;;;;;5043076;28;20919;-72
2023/06/03 11:34:59;;;;;;;1.42;0.65;;;27.20;99.90;;;;;;5037846;28;20442;-72
2023/06/03 11:37:41;;;;;;;6.93;6.15;;;26.20;97.40;;;;;;5040648;28;20425;-72
2023/06/03 11:40:21;;;;;;;1.08;0.90;;;25.60;95.20;;;;;;5053675;28;21070;-72
2023/06/03 11:42:51;;;;;;;0.68;0.30;;;25.60;94.80;;;;;;5043294;28;21023;-72
2023/06/03 11:45:28;;;;;;;2.57;2.37;;;26.20;96.40;;;;;;5042397;28;20962;-74
2023/06/03 11:48:07;;;;;;;2.90;2.70;;;26.50;97.60;;;;;;5039070;28;20558;-72
2023/06/03 11:50:49;;;;;;;9.40;7.18;;;26.80;98.40;;;;;;5038191;28;20425;-73
2023/06/03 11:53:35;;;;;;;1078.75;969.97;;;26.70;98.50;;;;;;5040846;28;20900;-72
2023/06/03 11:56:08;;;;;;;1066.82;951.95;;;27.10;99.30;;;;;;5040170;28;20429;-72
2023/06/03 11:58:40;;;;;;;1057.57;942.23;;;26.70;98.60;;;;;;5041034;28;21072;-73
2023/06/03 12:01:07;;;;;;;1091.40;973.30;;;27.00;99.00;;;;;;5040278;28;20433;-73
2023/06/03 12:03:36;;;;;;;893.65;805.95;;;27.10;99.20;;;;;;5039577;28;20491;-73
2023/06/03 12:06:04;;;;;;;876.65;793.63;;;27.20;99.60;;;;;;5042160;28;20429;-73
2023/06/03 12:08:49;;;;;;;1031.28;917.90;;;27.60;99.90;;;;;;5043893;28;20432;-72
2023/06/03 12:11:33;;;;;;;0.68;0.40;;;27.90;99.90;;;;;;5043869;28;20437;-73
2023/06/03 12:13:59;;;;;;;0.60;0.60;;;27.80;99.90;;;;;;5036084;28;20524;-72
2023/06/03 12:16:35;;;;;;;3.05;3.00;;;28.00;99.90;;;;;;5044541;28;20430;-72
2023/06/03 12:19:08;;;;;;;80.32;73.60;;;27.20;98.80;;;;;;5042813;28;20784;-72
2023/06/03 12:21:36;;;;;;;832.30;760.28;;;26.50;96.80;;;;;;5042655;28;20457;-72
2023/06/03 12:24:12;;;;;;;979.92;901.22;;;26.40;97.00;;;;;;5041437;28;20788;-72
2023/06/03 12:26:41;;;;;;;1036.40;922.17;;;26.50;97.10;;;;;;5038386;28;20426;-72
2023/06/03 12:29:14;;;;;;;1042.63;927.45;;;26.40;96.60;;;;;;5038361;28;20506;-73
2023/06/03 12:32:01;;;;;;;1035.97;902.03;;;26.00;95.80;;;;;;5041117;28;20425;-72
2023/06/03 12:34:33;;;;;;;1041.53;916.35;;;25.70;95.00;;;;;;5040186;28;20434;-72
2023/06/03 12:37:05;;;;;;;1056.95;930.88;;;26.30;96.80;;;;;;5037679;28;20491;-73
2023/06/03 12:39:49;;;;;;;1066.28;948.55;;;26.60;97.50;;;;;;5035165;28;20424;-73
2023/06/03 12:42:21;;;;;;;1076.57;957.72;;;27.20;99.00;;;;;;5039419;28;20437;-73
2023/06/03 12:44:52;;;;;;;1085.63;966.43;;;27.50;99.90;;;;;;5041594;28;20437;-73
2023/06/03 12:47:22;;;;;;;1083.70;965.55;;;27.50;99.90;;;;;;5037743;28;20491;-72
2023/06/03 12:50:06;;;;;;;1047.95;932.05;;;27.50;99.90;;;;;;5038611;28;20461;-73
2023/06/03 12:52:37;;;;;;;1090.60;972.45;;;27.40;99.80;;;;;;5067737;28;20446;-72
2023/06/03 12:55:07;;;;;;;1099.18;980.42;;;26.70;97.60;;;;;;5036279;28;20508;-72
2023/06/03 12:57:34;;;;;;;1083.93;964.80;;;26.10;95.90;;;;;;5038856;28;20567;-72
2023/06/03 13:00:06;;;;;;;1093.60;973.87;;;25.60;94.20;;;;;;5069986;28;20931;-73